createdAt,value
2022-10-30T00:05:10.633Z,8.67
2022-10-30T00:10:50.590Z,8.17
2022-10-30T00:16:26.630Z,7.00
2022-10-30T00:27:38.916Z,7.30
2022-10-30T00:36:01.161Z,7.83
2022-10-30T00:44:38.357Z,8.37
2022-10-30T00:50:16.494Z,8.27
2022-10-30T00:55:48.637Z,7.97
2022-10-30T01:01:27.945Z,7.23
2022-10-30T01:07:09.795Z,6.60
2022-10-30T01:12:46.883Z,6.87
2022-10-30T01:18:23.290Z,7.50
2022-10-30T01:24:16.107Z,6.93
2022-10-30T01:35:33.730Z,5.17
2022-10-30T01:38:24.665Z,5.53
2022-10-30T01:46:48.377Z,5.93
2022-10-30T01:52:40.690Z,5.67
2022-10-30T02:01:02.763Z,5.90
2022-10-30T02:03:51.222Z,5.20
2022-10-30T02:06:39.711Z,5.53
2022-10-30T02:09:27.845Z,6.67
2022-10-30T02:15:03.933Z,5.93
2022-10-30T02:20:43.407Z,6.50
2022-10-30T02:26:21.054Z,6.87
2022-10-30T02:31:51.689Z,5.80
2022-10-30T02:37:25.181Z,6.10
2022-10-30T02:42:58.629Z,6.00
2022-10-30T03:01:52.167Z,6.93
2022-10-30T03:04:40.514Z,5.73
2022-10-30T03:07:28.986Z,5.53
2022-10-30T03:10:17.673Z,7.37
2022-10-30T03:15:47.490Z,8.23
2022-10-30T03:21:23.301Z,7.00
2022-10-30T03:24:11.988Z,6.63
2022-10-30T03:32:48.454Z,7.47
2022-10-30T03:38:25.820Z,8.37
2022-10-30T03:41:17.086Z,9.87
2022-10-30T03:46:44.775Z,7.63
2022-10-30T03:52:15.690Z,6.70
2022-10-30T03:57:44.850Z,7.23
2022-10-30T04:03:16.512Z,5.63
2022-10-30T04:08:54.123Z,5.57
2022-10-30T04:14:25.669Z,7.17
2022-10-30T04:20:00.497Z,8.07
2022-10-30T04:25:35.634Z,6.67
2022-10-30T04:31:09.180Z,6.90
2022-10-30T04:36:40.554Z,6.30
2022-10-30T04:42:10.145Z,6.20
2022-10-30T04:47:42.635Z,5.17
2022-10-30T04:53:14.513Z,5.20
2022-10-30T04:58:46.156Z,5.40
2022-10-30T05:04:16.925Z,6.07
2022-10-30T05:10:16.989Z,4.50
2022-10-30T05:16:12.653Z,5.97
2022-10-30T05:21:46.936Z,5.50
2022-10-30T05:27:13.439Z,6.03
2022-10-30T05:32:47.986Z,5.27
2022-10-30T05:35:37.636Z,6.83
2022-10-30T05:38:25.767Z,6.37
2022-10-30T05:50:00.890Z,6.13
2022-10-30T05:55:38.682Z,6.17
2022-10-30T06:01:10.349Z,6.70
2022-10-30T06:06:47.031Z,7.10
2022-10-30T06:25:41.928Z,6.57
2022-10-30T06:33:59.971Z,6.20
2022-10-30T06:36:48.051Z,6.23
2022-10-30T06:42:22.571Z,7.23
2022-10-30T06:47:54.917Z,6.87
2022-10-30T06:50:43.069Z,6.53
2022-10-30T06:56:18.210Z,6.37
2022-10-30T07:04:27.097Z,6.77
2022-10-30T07:07:15.849Z,6.83
2022-10-30T07:12:52.275Z,7.13
2022-10-30T07:18:31.007Z,6.70
2022-10-30T07:21:27.745Z,7.57
2022-10-30T07:24:19.544Z,6.80
2022-10-30T07:29:54.829Z,7.50
2022-10-30T07:35:30.595Z,7.43
2022-10-30T07:38:23.388Z,7.50
2022-10-30T07:44:12.407Z,7.10
2022-10-30T07:47:00.576Z,7.33
2022-10-30T07:52:35.034Z,6.90
2022-10-30T07:58:14.601Z,7.23
2022-10-30T08:01:04.186Z,7.03
2022-10-30T08:06:35.659Z,7.37
2022-10-30T08:09:26.294Z,6.77
2022-10-30T08:12:15.908Z,7.13
2022-10-30T08:15:04.559Z,7.67
2022-10-30T08:17:53.478Z,7.63
2022-10-30T08:23:29.806Z,9.10
2022-10-30T08:26:18.659Z,8.93
2022-10-30T08:31:58.883Z,9.43
2022-10-30T08:34:48.826Z,8.70
2022-10-30T08:37:36.827Z,8.90
2022-10-30T08:46:01.402Z,7.60
2022-10-30T08:48:49.787Z,8.03
2022-10-30T08:54:27.513Z,7.93
2022-10-30T08:57:18.174Z,7.27
2022-10-30T09:02:58.625Z,7.80
2022-10-30T09:08:32.320Z,7.90
2022-10-30T09:13:59.282Z,7.67
2022-10-30T09:22:26.216Z,7.77
2022-10-30T09:27:57.506Z,7.57
2022-10-30T09:33:38.057Z,7.97
2022-10-30T09:36:27.091Z,7.93
2022-10-30T09:42:18.472Z,8.17
2022-10-30T09:48:00.770Z,8.33
2022-10-30T09:59:30.376Z,9.83
2022-10-30T10:07:51.107Z,9.63
2022-10-30T10:10:42.081Z,9.67
2022-10-30T10:13:35.707Z,9.30
2022-10-30T10:16:27.740Z,9.47
2022-10-30T10:22:00.678Z,10.37
2022-10-30T10:24:49.066Z,10.47
2022-10-30T10:30:56.359Z,10.20
2022-10-30T10:36:37.549Z,10.17
2022-10-30T10:45:25.760Z,9.43
2022-10-30T10:48:36.218Z,9.37
2022-10-30T10:56:53.439Z,7.83
2022-10-30T10:59:47.731Z,8.27
2022-10-30T11:02:40.131Z,8.43
2022-10-30T11:11:09.451Z,8.20
2022-10-30T11:16:59.000Z,8.30
2022-10-30T11:25:31.153Z,8.73
2022-10-30T11:31:21.164Z,9.03
2022-10-30T11:37:33.718Z,8.17
2022-10-30T11:43:11.694Z,9.03
2022-10-30T11:48:55.316Z,8.73
2022-10-30T11:54:49.224Z,7.87
2022-10-30T12:00:28.685Z,8.07
2022-10-30T12:06:21.681Z,8.57
2022-10-30T12:12:06.714Z,8.77
2022-10-30T12:14:53.127Z,9.50
2022-10-30T12:17:41.589Z,9.10
2022-10-30T12:23:21.021Z,8.80
2022-10-30T12:26:12.098Z,9.17
2022-10-30T12:31:51.156Z,8.33
2022-10-30T12:37:32.313Z,9.10
2022-10-30T12:43:17.520Z,9.07
2022-10-30T12:48:57.500Z,8.10
2022-10-30T12:57:28.535Z,10.13
2022-10-30T13:00:18.560Z,9.50
2022-10-30T13:03:14.219Z,10.03
2022-10-30T13:11:43.832Z,10.17
2022-10-30T13:17:22.492Z,11.90
2022-10-30T13:25:58.066Z,10.93
2022-10-30T13:31:32.599Z,11.23
2022-10-30T13:34:30.267Z,10.90
2022-10-30T13:40:14.745Z,11.40
2022-10-30T13:45:59.539Z,11.17
2022-10-30T13:52:52.766Z,12.10
2022-10-30T14:01:17.623Z,11.83
2022-10-30T14:06:55.340Z,11.17
2022-10-30T14:12:52.705Z,12.37
2022-10-30T14:18:47.339Z,11.70
2022-10-30T14:24:32.791Z,11.73
2022-10-30T14:30:20.289Z,11.27
2022-10-30T14:33:33.260Z,11.97
2022-10-30T14:36:24.159Z,11.80
2022-10-30T14:42:21.603Z,11.13
2022-10-30T14:45:14.878Z,10.23
2022-10-30T14:48:06.210Z,10.70
2022-10-30T14:53:59.204Z,12.67
2022-10-30T14:56:49.321Z,11.30
2022-10-30T14:59:39.447Z,11.53
2022-10-30T15:05:46.458Z,10.63
2022-10-30T15:12:13.526Z,10.03
2022-10-30T15:17:47.095Z,11.33
2022-10-30T15:23:21.833Z,11.00
2022-10-30T15:28:57.643Z,11.37
2022-10-30T15:34:32.945Z,11.40
2022-10-30T15:40:18.331Z,11.20
2022-10-30T15:45:55.894Z,11.37
2022-10-30T15:48:48.406Z,10.83
2022-10-30T15:54:21.836Z,10.90
2022-10-30T16:00:08.596Z,10.50
2022-10-30T16:05:45.543Z,11.17
2022-10-30T16:11:22.617Z,11.27
2022-10-30T16:17:02.075Z,10.77
2022-10-30T16:19:52.519Z,11.03
2022-10-30T16:25:31.392Z,10.80
2022-10-30T16:31:15.368Z,10.90
2022-10-30T16:36:50.533Z,11.53
2022-10-30T16:42:26.771Z,14.33
2022-10-30T16:48:40.561Z,11.40
2022-10-30T16:51:29.235Z,11.50
2022-10-30T16:59:54.822Z,10.53
2022-10-30T17:05:33.750Z,12.07
2022-10-30T17:14:19.922Z,11.43
2022-10-30T17:20:12.830Z,11.20
2022-10-30T17:23:08.530Z,10.33
2022-10-30T17:28:40.183Z,11.63
2022-10-30T17:34:21.739Z,10.63
2022-10-30T17:39:50.920Z,10.63
2022-10-30T17:45:20.859Z,12.27
2022-10-30T17:50:57.482Z,12.90
2022-10-30T17:56:35.285Z,12.77
2022-10-30T18:02:15.210Z,13.47
2022-10-30T18:07:42.912Z,13.77
2022-10-30T18:13:15.816Z,12.00
2022-10-30T18:18:55.600Z,19.40
2022-10-30T18:24:42.933Z,18.70
2022-10-30T18:30:21.984Z,13.50
2022-10-30T18:35:59.162Z,14.70
2022-10-30T18:41:46.246Z,14.03
2022-10-30T18:47:24.968Z,12.93
2022-10-30T18:53:01.256Z,12.20
2022-10-30T18:58:44.128Z,15.57
2022-10-30T19:04:21.890Z,13.80
2022-10-30T19:07:06.471Z,13.10
2022-10-30T19:12:51.483Z,13.03
2022-10-30T19:18:41.421Z,14.27
2022-10-30T19:24:38.507Z,14.37
2022-10-30T19:30:18.701Z,12.20
2022-10-30T19:35:55.462Z,10.07
2022-10-30T19:41:26.374Z,9.90
2022-10-30T19:46:58.690Z,9.87
2022-10-30T19:52:34.484Z,10.30
2022-10-30T19:58:12.791Z,9.93
2022-10-30T20:03:45.708Z,10.80
2022-10-30T20:09:23.725Z,10.87
2022-10-30T20:15:01.423Z,12.83
2022-10-30T20:21:08.907Z,12.80
2022-10-30T20:26:45.308Z,13.40
2022-10-30T20:32:23.483Z,13.07
2022-10-30T20:35:13.353Z,11.73
2022-10-30T20:40:46.382Z,12.30
2022-10-30T20:49:17.339Z,11.27
2022-10-30T20:54:40.866Z,11.77
2022-10-30T21:11:30.508Z,12.43
2022-10-30T21:17:33.453Z,11.57
2022-10-30T21:23:19.394Z,13.53
2022-10-30T21:28:56.234Z,12.90
2022-10-30T21:31:44.717Z,11.97
2022-10-30T21:34:34.317Z,12.00
2022-10-30T21:40:28.406Z,10.73
2022-10-30T21:46:06.647Z,11.10
2022-10-30T21:51:42.202Z,10.33
2022-10-30T22:02:43.668Z,10.33
2022-10-30T22:05:33.589Z,10.13
2022-10-30T22:13:43.955Z,11.50
2022-10-30T22:19:14.637Z,11.80
2022-10-30T22:24:48.957Z,11.60
2022-10-30T22:27:38.039Z,10.90
2022-10-30T22:33:17.167Z,10.43
2022-10-30T22:39:00.560Z,11.67
2022-10-30T22:41:49.082Z,11.30
2022-10-30T22:47:25.099Z,11.43
2022-10-30T22:53:00.453Z,11.37
2022-10-30T22:55:50.017Z,10.27
2022-10-30T23:01:27.011Z,10.03
2022-10-30T23:07:06.982Z,9.83
2022-10-30T23:12:39.930Z,9.47
2022-10-30T23:15:31.616Z,8.87
2022-10-30T23:21:08.921Z,10.20
2022-10-30T23:23:57.639Z,9.20
2022-10-30T23:29:44.572Z,8.90
2022-10-30T23:35:21.168Z,9.90
2022-10-30T23:40:58.410Z,9.60
2022-10-30T23:46:34.304Z,9.43
2022-10-30T23:49:23.170Z,9.33
2022-10-30T23:52:11.994Z,9.70
2022-10-30T23:57:42.650Z,8.83
